createdAt,value
2019-01-16T00:00:33.864Z,-1.00
2019-01-16T00:03:21.574Z,-1.00
2019-01-16T00:06:15.698Z,-0.90
2019-01-16T00:09:02.015Z,-0.70
2019-01-16T00:11:58.719Z,-0.70
2019-01-16T00:14:49.523Z,-0.60
2019-01-16T00:17:49.700Z,-0.60
2019-01-16T00:20:34.303Z,-0.70
2019-01-16T00:23:21.390Z,-0.80
2019-01-16T00:26:24.595Z,-0.90
2019-01-16T00:29:30.460Z,-0.90
2019-01-16T00:32:16.034Z,-1.00
2019-01-16T00:35:08.899Z,-0.90
2019-01-16T00:37:56.860Z,-0.90
2019-01-16T00:40:42.623Z,-0.90
2019-01-16T00:43:29.273Z,-0.80
2019-01-16T00:46:23.123Z,-0.70
2019-01-16T00:49:19.939Z,-0.70
2019-01-16T00:52:07.670Z,-0.80
2019-01-16T00:55:07.377Z,-0.80
2019-01-16T00:58:01.268Z,-0.80
2019-01-16T01:00:45.270Z,-0.90
2019-01-16T01:03:31.809Z,-0.90
2019-01-16T01:06:18.597Z,-1.00
2019-01-16T01:09:10.585Z,-1.00
2019-01-16T01:11:57.690Z,-1.00
2019-01-16T01:14:38.688Z,-1.00
2019-01-16T01:17:18.119Z,-1.00
2019-01-16T01:20:18.202Z,-1.00
2019-01-16T01:23:06.374Z,-1.00
2019-01-16T01:25:52.263Z,-1.00
2019-01-16T01:28:38.633Z,-1.00
2019-01-16T01:31:22.905Z,-1.00
2019-01-16T01:34:08.520Z,-1.10
2019-01-16T01:36:55.146Z,-1.10
2019-01-16T01:39:41.486Z,-1.30
2019-01-16T01:42:38.716Z,-1.20
2019-01-16T01:45:33.629Z,-1.20
2019-01-16T01:48:20.440Z,-1.20
2019-01-16T01:51:11.955Z,-1.30
2019-01-16T01:54:06.052Z,-1.20
2019-01-16T01:56:52.814Z,-1.20
2019-01-16T01:59:51.340Z,-1.20
2019-01-16T02:02:41.787Z,-1.10
2019-01-16T02:05:32.372Z,-1.10
2019-01-16T02:08:18.764Z,-1.00
2019-01-16T02:11:18.864Z,-1.00
2019-01-16T02:14:09.351Z,-0.90
2019-01-16T02:16:46.855Z,-0.90
2019-01-16T02:19:40.519Z,-0.90
2019-01-16T02:22:27.019Z,-1.00
2019-01-16T02:25:29.521Z,-1.00
2019-01-16T02:28:23.300Z,-1.00
2019-01-16T02:31:14.058Z,-1.00
2019-01-16T02:33:55.709Z,-1.00
2019-01-16T02:36:52.405Z,-1.00
2019-01-16T02:39:39.474Z,-1.10
2019-01-16T02:42:21.959Z,-1.10
2019-01-16T02:45:01.426Z,-1.10
2019-01-16T02:47:47.495Z,-1.10
2019-01-16T02:50:38.472Z,-1.00
2019-01-16T02:53:19.414Z,-0.90
2019-01-16T02:56:22.541Z,-0.90
2019-01-16T02:59:12.449Z,-1.00
2019-01-16T03:02:00.154Z,-1.00
2019-01-16T03:04:53.782Z,-0.90
2019-01-16T03:07:53.741Z,-0.90
2019-01-16T03:10:39.938Z,-0.90
2019-01-16T03:13:28.591Z,-1.00
2019-01-16T03:16:19.017Z,-1.00
2019-01-16T03:19:05.415Z,-1.10
2019-01-16T03:21:51.819Z,-1.10
2019-01-16T03:24:34.317Z,-1.10
2019-01-16T03:27:20.283Z,-1.20
2019-01-16T03:30:25.942Z,-1.20
2019-01-16T03:33:10.861Z,-1.20
2019-01-16T03:36:11.033Z,-1.10
2019-01-16T03:38:49.878Z,-1.10
2019-01-16T03:41:36.634Z,-1.10
2019-01-16T03:44:22.159Z,-1.00
2019-01-16T03:47:08.759Z,-0.90
2019-01-16T03:49:55.999Z,-0.90
2019-01-16T03:52:33.743Z,-1.00
2019-01-16T03:55:18.665Z,-1.00
2019-01-16T03:58:03.669Z,-1.10
2019-01-16T04:00:49.824Z,-1.00
2019-01-16T04:03:46.679Z,-1.10
2019-01-16T04:06:26.502Z,-1.10
2019-01-16T04:09:23.477Z,-1.00
2019-01-16T04:12:14.076Z,-1.00
2019-01-16T04:15:04.630Z,-0.90
2019-01-16T04:17:52.400Z,-0.90
2019-01-16T04:20:37.806Z,-0.80
2019-01-16T04:23:21.829Z,-0.80
2019-01-16T04:26:00.949Z,-0.80
2019-01-16T04:28:51.785Z,-0.80
2019-01-16T04:31:48.303Z,-0.80
2019-01-16T04:34:30.647Z,-0.80
2019-01-16T04:37:17.064Z,-0.80
2019-01-16T04:39:56.850Z,-0.80
2019-01-16T04:42:45.230Z,-0.80
2019-01-16T04:45:39.184Z,-0.80
2019-01-16T04:48:39.182Z,-0.80
2019-01-16T04:51:32.557Z,-0.80
2019-01-16T04:54:32.156Z,-0.90
2019-01-16T04:57:38.175Z,-0.90
2019-01-16T05:00:29.009Z,-0.80
2019-01-16T05:03:29.748Z,-0.60
2019-01-16T05:06:29.930Z,-0.40
2019-01-16T05:09:30.125Z,-0.40
2019-01-16T05:12:15.772Z,-0.40
2019-01-16T05:15:03.850Z,-0.40
2019-01-16T05:17:51.750Z,-0.40
2019-01-16T05:20:38.258Z,-0.40
2019-01-16T05:23:26.599Z,-0.50
2019-01-16T05:26:11.844Z,-0.60
2019-01-16T05:28:59.609Z,-0.60
2019-01-16T05:31:46.421Z,-0.70
2019-01-16T05:34:43.316Z,-0.70
2019-01-16T05:37:43.213Z,-0.60
2019-01-16T05:40:29.890Z,-0.60
2019-01-16T05:43:23.664Z,-0.60
2019-01-16T05:46:09.027Z,-0.60
2019-01-16T05:48:47.188Z,-0.60
2019-01-16T05:51:27.871Z,-0.60
2019-01-16T05:54:14.418Z,-0.60
2019-01-16T05:57:02.458Z,-0.60
2019-01-16T05:59:48.963Z,-0.70
2019-01-16T06:02:49.072Z,-0.60
2019-01-16T06:05:36.729Z,-0.70
2019-01-16T06:08:23.083Z,-0.70
2019-01-16T06:11:13.715Z,-0.70
2019-01-16T06:14:00.111Z,-0.80
2019-01-16T06:16:41.748Z,-0.80
2019-01-16T06:19:38.915Z,-0.70
2019-01-16T06:22:30.496Z,-0.70
2019-01-16T06:25:33.572Z,-0.70
2019-01-16T06:28:30.459Z,-0.60
2019-01-16T06:31:21.211Z,-0.60
2019-01-16T06:34:05.287Z,-0.60
2019-01-16T06:37:08.143Z,-0.60
2019-01-16T06:39:47.195Z,-0.60
2019-01-16T06:42:50.069Z,-0.50
2019-01-16T06:45:49.093Z,-0.50
2019-01-16T06:48:39.997Z,-0.50
2019-01-16T06:51:39.963Z,-0.50
2019-01-16T06:54:27.065Z,-0.30
2019-01-16T06:57:15.251Z,-0.40
2019-01-16T07:00:08.388Z,-0.40
2019-01-16T07:02:54.419Z,-0.30
2019-01-16T07:05:57.171Z,-0.30
2019-01-16T07:08:56.526Z,-0.30
2019-01-16T07:11:47.590Z,-0.20
2019-01-16T07:14:25.565Z,-0.30
2019-01-16T07:17:12.732Z,-0.30
2019-01-16T07:19:54.311Z,-0.30
2019-01-16T07:22:57.405Z,-0.20
2019-01-16T07:26:00.190Z,-0.10
2019-01-16T07:28:53.762Z,-0.10
2019-01-16T07:31:44.561Z,-0.10
2019-01-16T07:34:37.753Z,-0.10
2019-01-16T07:37:26.708Z,-0.10
2019-01-16T07:40:20.614Z,-0.10
2019-01-16T07:43:08.705Z,-0.10
2019-01-16T07:45:48.139Z,0.10
2019-01-16T07:48:29.654Z,0.20
2019-01-16T07:51:11.904Z,0.30
2019-01-16T07:54:11.624Z,0.40
2019-01-16T07:56:59.680Z,0.50
2019-01-16T07:59:58.171Z,0.90
2019-01-16T08:02:57.425Z,1.80
2019-01-16T08:05:53.550Z,3.80
2019-01-16T08:08:41.168Z,5.70
2019-01-16T08:11:27.483Z,7.20
2019-01-16T08:14:10.098Z,7.50
2019-01-16T08:16:53.663Z,7.60
2019-01-16T08:19:39.674Z,8.40
2019-01-16T08:22:39.547Z,9.80
2019-01-16T08:25:28.074Z,9.20
2019-01-16T08:28:15.439Z,7.40
2019-01-16T08:31:15.785Z,6.10
2019-01-16T08:34:06.895Z,5.90
2019-01-16T08:36:57.994Z,6.20
2019-01-16T08:40:04.137Z,6.20
2019-01-16T08:42:57.969Z,7.90
2019-01-16T08:45:46.621Z,10.00
2019-01-16T08:48:40.579Z,12.10
2019-01-16T08:51:40.291Z,13.10
2019-01-16T08:54:45.791Z,13.60
2019-01-16T08:57:33.529Z,14.30
2019-01-16T09:00:20.172Z,15.20
2019-01-16T09:03:20.066Z,15.70
2019-01-16T09:06:06.285Z,16.20
2019-01-16T09:08:54.253Z,16.20
2019-01-16T09:11:43.956Z,15.30
2019-01-16T09:14:33.118Z,13.50
2019-01-16T09:17:23.061Z,12.20
2019-01-16T09:20:11.097Z,10.60
2019-01-16T09:23:16.951Z,9.50
2019-01-16T09:26:04.840Z,9.30
2019-01-16T09:28:53.041Z,8.50
2019-01-16T09:31:59.216Z,8.00
2019-01-16T09:34:46.849Z,7.80
2019-01-16T09:37:33.116Z,8.80
2019-01-16T09:40:24.794Z,9.80
2019-01-16T09:43:21.727Z,10.90
2019-01-16T09:46:18.454Z,10.80
2019-01-16T09:49:06.016Z,9.30
2019-01-16T09:51:54.071Z,8.30
2019-01-16T09:54:34.266Z,7.60
2019-01-16T09:57:21.973Z,7.30
2019-01-16T10:00:15.875Z,7.10
2019-01-16T10:03:09.361Z,7.30
2019-01-16T10:05:56.073Z,8.60
2019-01-16T10:08:42.498Z,10.90
2019-01-16T10:11:29.110Z,11.80
2019-01-16T10:14:16.843Z,11.30
2019-01-16T10:17:04.086Z,10.40
2019-01-16T10:19:55.516Z,9.30
2019-01-16T10:22:36.782Z,8.60
2019-01-16T10:25:17.472Z,8.20
2019-01-16T10:28:04.835Z,7.90
2019-01-16T10:30:42.938Z,8.10
2019-01-16T10:33:38.072Z,8.40
2019-01-16T10:36:28.672Z,8.60
2019-01-16T10:39:13.362Z,9.00
2019-01-16T10:42:06.295Z,10.20
2019-01-16T10:44:49.852Z,12.10
2019-01-16T10:47:40.384Z,13.60
2019-01-16T10:50:29.184Z,14.70
2019-01-16T10:53:26.161Z,15.50
2019-01-16T10:56:13.922Z,16.40
2019-01-16T10:59:07.897Z,15.90
2019-01-16T11:02:06.838Z,15.50
2019-01-16T11:04:45.750Z,14.90
2019-01-16T11:07:30.285Z,14.80
2019-01-16T11:10:17.894Z,14.20
2019-01-16T11:13:25.203Z,14.00
2019-01-16T11:16:27.839Z,14.30
2019-01-16T11:19:27.850Z,15.60
2019-01-16T11:22:14.433Z,17.00
2019-01-16T11:25:02.398Z,17.90
2019-01-16T11:27:55.555Z,18.90
2019-01-16T11:30:49.359Z,19.80
2019-01-16T11:33:40.159Z,19.80
2019-01-16T11:36:18.650Z,19.80
2019-01-16T11:39:12.753Z,20.30
2019-01-16T11:41:50.822Z,20.60
2019-01-16T11:44:51.073Z,21.00
2019-01-16T11:47:37.181Z,20.70
2019-01-16T11:50:27.494Z,20.20
2019-01-16T11:53:18.070Z,20.00
2019-01-16T11:56:05.303Z,19.30
2019-01-16T11:58:59.544Z,18.50
2019-01-16T12:01:53.057Z,17.50
2019-01-16T12:04:53.318Z,17.60
2019-01-16T12:07:39.990Z,18.50
2019-01-16T12:10:27.721Z,18.10
2019-01-16T12:13:27.919Z,17.20
2019-01-16T12:16:15.467Z,16.90
2019-01-16T12:19:01.177Z,17.50
2019-01-16T12:21:47.321Z,18.40
2019-01-16T12:24:46.819Z,19.10
2019-01-16T12:27:46.362Z,19.00
2019-01-16T12:30:34.638Z,18.70
2019-01-16T12:33:24.827Z,18.50
2019-01-16T12:36:18.517Z,17.90
2019-01-16T12:39:06.217Z,17.20
2019-01-16T12:41:59.510Z,16.20
2019-01-16T12:44:49.035Z,15.00
2019-01-16T12:47:42.222Z,14.10
2019-01-16T12:50:29.946Z,13.20
2019-01-16T12:53:33.011Z,12.60
2019-01-16T12:56:20.121Z,12.10
2019-01-16T12:59:08.939Z,11.70
2019-01-16T13:01:46.923Z,11.50
2019-01-16T13:04:46.192Z,11.40
2019-01-16T13:07:38.212Z,11.40
2019-01-16T13:10:28.012Z,11.30
2019-01-16T13:13:15.375Z,11.20
2019-01-16T13:16:03.026Z,11.20
2019-01-16T13:18:53.270Z,11.20
2019-01-16T13:21:40.979Z,11.10
2019-01-16T13:24:38.337Z,11.20
2019-01-16T13:27:29.398Z,11.30
2019-01-16T13:30:15.321Z,11.30
2019-01-16T13:33:03.850Z,11.40
2019-01-16T13:35:54.155Z,11.30
2019-01-16T13:38:40.505Z,11.10
2019-01-16T13:41:40.118Z,10.90
2019-01-16T13:44:36.858Z,10.60
2019-01-16T13:47:26.907Z,10.60
2019-01-16T13:50:05.343Z,10.60
2019-01-16T13:52:51.715Z,10.70
2019-01-16T13:55:37.455Z,10.50
2019-01-16T13:58:36.880Z,10.50
2019-01-16T14:01:36.550Z,10.70
2019-01-16T14:04:22.162Z,10.60
2019-01-16T14:07:00.000Z,10.80
2019-01-16T14:09:45.230Z,11.00
2019-01-16T14:12:35.586Z,11.10
2019-01-16T14:15:26.576Z,11.10
2019-01-16T14:18:25.916Z,11.00
2019-01-16T14:21:15.112Z,11.10
2019-01-16T14:24:17.621Z,11.00
2019-01-16T14:27:08.754Z,11.20
2019-01-16T14:29:55.390Z,11.00
2019-01-16T14:32:51.242Z,11.20
2019-01-16T14:35:38.107Z,11.20
2019-01-16T14:38:40.695Z,11.10
2019-01-16T14:41:46.400Z,11.10
2019-01-16T14:44:34.031Z,10.90
2019-01-16T14:47:27.946Z,10.90
2019-01-16T14:50:08.469Z,10.90
2019-01-16T14:52:44.879Z,10.80
2019-01-16T14:55:38.041Z,10.80
2019-01-16T14:58:28.681Z,10.70
2019-01-16T15:01:15.995Z,10.70
2019-01-16T15:03:55.533Z,10.70
2019-01-16T15:06:44.362Z,10.80
2019-01-16T15:09:43.882Z,10.80
2019-01-16T15:12:45.770Z,10.80
2019-01-16T15:15:26.135Z,10.70
2019-01-16T15:18:24.210Z,10.50
2019-01-16T15:21:10.663Z,10.40
2019-01-16T15:23:57.006Z,10.30
2019-01-16T15:26:43.758Z,10.20
2019-01-16T15:29:43.092Z,10.10
2019-01-16T15:32:30.460Z,10.00
2019-01-16T15:35:16.912Z,9.90
2019-01-16T15:38:11.025Z,9.90
2019-01-16T15:41:08.479Z,9.90
2019-01-16T15:43:54.439Z,9.80
2019-01-16T15:46:59.131Z,9.70
2019-01-16T15:49:45.205Z,9.60
2019-01-16T15:52:48.041Z,9.60
2019-01-16T15:55:42.131Z,9.50
2019-01-16T15:58:28.548Z,9.50
2019-01-16T16:01:07.583Z,9.40
2019-01-16T16:03:49.408Z,9.40
2019-01-16T16:06:39.497Z,9.30
2019-01-16T16:09:29.271Z,9.20
2019-01-16T16:12:13.630Z,9.00
2019-01-16T16:15:01.047Z,8.90
2019-01-16T16:17:46.987Z,8.80
2019-01-16T16:20:44.041Z,8.70
2019-01-16T16:23:36.293Z,8.40
2019-01-16T16:26:18.033Z,8.30
2019-01-16T16:29:11.481Z,8.20
2019-01-16T16:31:58.623Z,8.10
2019-01-16T16:35:06.212Z,8.00
2019-01-16T16:38:05.795Z,7.80
2019-01-16T16:40:52.553Z,7.60
2019-01-16T16:43:48.624Z,7.50
2019-01-16T16:46:43.601Z,7.50
2019-01-16T16:49:29.391Z,7.60
2019-01-16T16:52:33.301Z,7.40
2019-01-16T16:55:24.854Z,7.20
2019-01-16T16:58:22.974Z,7.00
2019-01-16T17:01:14.395Z,6.80
2019-01-16T17:04:07.951Z,6.80
2019-01-16T17:06:54.748Z,6.60
2019-01-16T17:09:47.269Z,6.50
2019-01-16T17:12:35.160Z,6.40
2019-01-16T17:15:26.440Z,6.20
2019-01-16T17:18:13.317Z,6.20
2019-01-16T17:21:02.335Z,6.20
2019-01-16T17:23:49.634Z,6.20
2019-01-16T17:26:30.499Z,6.10
2019-01-16T17:29:28.130Z,6.00
2019-01-16T17:32:24.877Z,5.90
2019-01-16T17:35:11.405Z,6.00
2019-01-16T17:37:58.937Z,6.00
2019-01-16T17:40:46.673Z,5.90
2019-01-16T17:43:37.032Z,5.80
2019-01-16T17:46:23.620Z,5.80
2019-01-16T17:49:10.331Z,5.70
2019-01-16T17:52:01.460Z,5.80
2019-01-16T17:54:47.680Z,5.70
2019-01-16T17:57:34.765Z,5.70
2019-01-16T18:00:21.842Z,5.80
2019-01-16T18:03:08.557Z,5.90
2019-01-16T18:06:15.323Z,5.80
2019-01-16T18:09:16.555Z,5.80
2019-01-16T18:12:03.051Z,5.70
2019-01-16T18:14:50.118Z,5.70
2019-01-16T18:17:36.570Z,5.70
2019-01-16T18:20:22.715Z,5.60
2019-01-16T18:23:17.166Z,5.50
2019-01-16T18:26:05.883Z,5.40
2019-01-16T18:28:48.955Z,5.40
2019-01-16T18:31:36.545Z,5.30
2019-01-16T18:34:42.041Z,5.30
2019-01-16T18:37:28.237Z,5.30
2019-01-16T18:40:13.782Z,5.30
2019-01-16T18:43:14.380Z,5.40
2019-01-16T18:46:01.045Z,5.50
2019-01-16T18:49:03.967Z,5.50
2019-01-16T18:51:52.485Z,5.60
2019-01-16T18:54:43.781Z,5.70
2019-01-16T18:57:33.099Z,5.80
2019-01-16T19:00:22.041Z,6.10
2019-01-16T19:03:13.951Z,6.40
2019-01-16T19:06:13.897Z,6.80
2019-01-16T19:09:01.356Z,7.00
2019-01-16T19:11:48.272Z,7.10
2019-01-16T19:14:31.576Z,7.30
2019-01-16T19:17:31.240Z,7.40
2019-01-16T19:20:27.769Z,7.50
2019-01-16T19:23:14.868Z,7.40
2019-01-16T19:26:05.478Z,7.30
2019-01-16T19:28:52.720Z,7.30
2019-01-16T19:31:45.695Z,7.40
2019-01-16T19:34:20.164Z,7.40
2019-01-16T19:37:06.777Z,7.40
2019-01-16T19:39:51.688Z,7.50
2019-01-16T19:42:43.131Z,7.40
2019-01-16T19:45:31.417Z,7.40
2019-01-16T19:48:25.052Z,7.50
2019-01-16T19:51:14.262Z,7.50
2019-01-16T19:54:02.698Z,7.40
2019-01-16T19:56:50.876Z,7.40
2019-01-16T19:59:38.066Z,7.40
2019-01-16T20:02:26.812Z,7.50
2019-01-16T20:05:29.234Z,7.60
2019-01-16T20:08:17.280Z,7.90
2019-01-16T20:11:23.494Z,8.10
2019-01-16T20:14:17.672Z,8.10
2019-01-16T20:16:59.813Z,8.10
2019-01-16T20:19:46.158Z,8.30
2019-01-16T20:22:45.406Z,8.40
2019-01-16T20:25:33.214Z,8.60
2019-01-16T20:28:27.453Z,8.60
2019-01-16T20:31:14.779Z,8.60
2019-01-16T20:33:51.907Z,8.50
2019-01-16T20:36:37.080Z,8.50
2019-01-16T20:39:31.834Z,8.40
2019-01-16T20:42:17.773Z,8.40
2019-01-16T20:45:05.724Z,8.40
2019-01-16T20:48:02.063Z,8.40
2019-01-16T20:50:48.141Z,8.40
2019-01-16T20:53:36.109Z,8.40
2019-01-16T20:56:32.776Z,8.40
2019-01-16T20:59:38.788Z,8.40
2019-01-16T21:02:25.709Z,8.40
2019-01-16T21:05:14.802Z,8.50
2019-01-16T21:08:17.659Z,8.50
2019-01-16T21:10:56.255Z,8.60
2019-01-16T21:13:41.111Z,8.60
2019-01-16T21:16:32.032Z,8.70
2019-01-16T21:19:18.223Z,8.70
2019-01-16T21:22:14.918Z,8.80
2019-01-16T21:24:58.490Z,8.80
2019-01-16T21:27:52.407Z,8.80
2019-01-16T21:30:40.202Z,8.70
2019-01-16T21:33:36.658Z,8.70
2019-01-16T21:36:29.302Z,8.70
2019-01-16T21:39:25.340Z,8.70
2019-01-16T21:42:16.921Z,8.70
2019-01-16T21:45:10.637Z,8.70
2019-01-16T21:48:07.448Z,8.60
2019-01-16T21:50:45.266Z,8.60
2019-01-16T21:53:33.401Z,8.50
2019-01-16T21:56:32.056Z,8.50
2019-01-16T21:59:28.303Z,8.40
2019-01-16T22:02:24.740Z,8.40
2019-01-16T22:05:15.662Z,8.40
2019-01-16T22:08:09.476Z,8.40
2019-01-16T22:11:09.862Z,8.40
2019-01-16T22:14:15.861Z,8.30
2019-01-16T22:17:09.903Z,8.30
2019-01-16T22:19:56.405Z,8.30
2019-01-16T22:22:50.895Z,8.20
2019-01-16T22:25:36.946Z,8.10
2019-01-16T22:28:25.565Z,8.20
2019-01-16T22:31:11.466Z,8.10
2019-01-16T22:34:14.419Z,8.10
2019-01-16T22:36:54.574Z,8.00
2019-01-16T22:39:50.772Z,7.90
2019-01-16T22:42:43.680Z,8.00
2019-01-16T22:45:34.520Z,8.10
2019-01-16T22:48:25.677Z,8.30
2019-01-16T22:51:13.409Z,8.40
2019-01-16T22:54:03.699Z,8.40
2019-01-16T22:56:56.655Z,8.50
2019-01-16T22:59:42.857Z,8.50
2019-01-16T23:02:23.789Z,8.50
2019-01-16T23:05:18.627Z,8.60
2019-01-16T23:08:16.501Z,8.60
2019-01-16T23:11:10.839Z,8.60
2019-01-16T23:14:10.656Z,8.70
2019-01-16T23:16:53.738Z,8.70
2019-01-16T23:19:45.751Z,8.70
2019-01-16T23:22:42.053Z,8.70
2019-01-16T23:25:28.559Z,8.70
2019-01-16T23:28:15.418Z,8.70
2019-01-16T23:31:10.859Z,8.60
2019-01-16T23:33:52.310Z,8.60
2019-01-16T23:36:56.418Z,8.60
2019-01-16T23:39:49.983Z,8.60
2019-01-16T23:42:36.245Z,8.70
2019-01-16T23:45:39.579Z,8.60
2019-01-16T23:48:29.885Z,8.60
2019-01-16T23:51:25.722Z,8.60
2019-01-16T23:54:13.796Z,8.60
2019-01-16T23:57:10.786Z,8.60
2019-01-16T23:59:58.246Z,8.60
